Time;durP1;ratioP1;P1;durP2;ratioP2;P2;SDS_P1;SDS_P2;PMS_P1;PMS_P2;Temp;Humidity;BMP_temperature;BMP_pressure;BME280_temperature;BME280_humidity;BME280_pressure;Samples;Min_cycle;Max_cycle;Signal;HPM_P1;HPM_P2
2023/05/14 00:00:55;;;;;;;4.60;4.03;;;;;;;;;;5049402;28;20211;-71
2023/05/14 00:03:23;;;;;;;4.57;4.23;;;;;;;;;;5050669;28;20199;-71
2023/05/14 00:05:50;;;;;;;4.13;3.83;;;;;;;;;;5049817;28;20214;-71
2023/05/14 00:08:17;;;;;;;6.53;4.10;;;;;;;;;;5050352;28;20232;-71
2023/05/14 00:10:48;;;;;;;4.53;4.13;;;;;;;;;;5052548;28;20208;-71
2023/05/14 00:13:15;;;;;;;4.40;4.03;;;;;;;;;;5051634;28;20213;-71
2023/05/14 00:15:42;;;;;;;4.57;4.17;;;;;;;;;;5051564;28;20242;-71
2023/05/14 00:18:10;;;;;;;4.63;4.00;;;;;;;;;;5051835;28;20202;-71
2023/05/14 00:20:38;;;;;;;4.20;3.90;;;;;;;;;;5051260;28;20295;-72
2023/05/14 00:23:05;;;;;;;4.07;3.67;;;;;;;;;;5050476;28;20207;-71
2023/05/14 00:25:32;;;;;;;4.47;4.07;;;;;;;;;;5051074;28;20203;-71
2023/05/14 00:28:00;;;;;;;4.00;3.60;;;;;;;;;;5053151;28;20215;-71
2023/05/14 00:30:27;;;;;;;3.67;3.37;;;;;;;;;;5048925;28;20196;-71
2023/05/14 00:32:55;;;;;;;3.93;3.53;;;;;;;;;;5048911;28;20208;-72
2023/05/14 00:35:22;;;;;;;6.47;3.80;;;;;;;;;;5051745;28;20203;-71
2023/05/14 00:37:49;;;;;;;4.63;3.50;;;;;;;;;;5046917;28;20219;-72
2023/05/14 00:40:16;;;;;;;3.47;3.17;;;;;;;;;;5050801;28;20203;-71
2023/05/14 00:42:43;;;;;;;4.40;3.57;;;;;;;;;;5050766;28;20211;-72
2023/05/14 00:45:12;;;;;;;3.67;3.37;;;;;;;;;;5050310;28;20199;-71
2023/05/14 00:47:39;;;;;;;3.50;3.20;;;;;;;;;;5048356;28;20220;-72
2023/05/14 00:50:07;;;;;;;3.50;3.20;;;;;;;;;;5053905;28;20203;-71
2023/05/14 00:52:34;;;;;;;3.17;2.87;;;;;;;;;;5052200;28;20244;-71
2023/05/14 00:55:03;;;;;;;3.70;3.10;;;;;;;;;;5052419;28;20253;-72
2023/05/14 00:57:30;;;;;;;3.27;2.90;;;;;;;;;;5046192;28;20206;-71
2023/05/14 00:59:58;;;;;;;3.20;3.00;;;;;;;;;;5050542;28;20203;-71
2023/05/14 01:02:29;;;;;;;4.03;3.03;;;;;;;;;;5050536;28;20200;-62
2023/05/14 01:04:56;;;;;;;3.90;3.60;;;;;;;;;;5047398;28;20287;-62
2023/05/14 01:07:31;;;;;;;3.87;3.57;;;;;;;;;;5050262;28;20227;-62
2023/05/14 01:10:00;;;;;;;3.67;3.37;;;;;;;;;;5051539;28;20195;-63
2023/05/14 01:12:32;;;;;;;4.63;3.73;;;;;;;;;;5049286;28;20283;-62
2023/05/14 01:15:02;;;;;;;3.63;3.30;;;;;;;;;;5052077;28;20212;-62
2023/05/14 01:17:35;;;;;;;3.53;3.23;;;;;;;;;;5048833;28;20203;-62
2023/05/14 01:20:03;;;;;;;3.43;3.20;;;;;;;;;;5047253;28;20227;-62
2023/05/14 01:22:31;;;;;;;3.70;3.43;;;;;;;;;;5048697;28;20204;-63
2023/05/14 01:24:58;;;;;;;5.30;3.40;;;;;;;;;;5048769;28;20211;-62
2023/05/14 01:27:30;;;;;;;4.67;3.30;;;;;;;;;;5049436;28;20254;-62
2023/05/14 01:30:02;;;;;;;3.60;3.30;;;;;;;;;;5049901;28;20208;-62
2023/05/14 01:32:30;;;;;;;6.00;3.00;;;;;;;;;;5047789;28;20207;-62
2023/05/14 01:34:59;;;;;;;3.20;3.00;;;;;;;;;;5051977;28;20203;-62
2023/05/14 01:37:27;;;;;;;3.60;3.30;;;;;;;;;;5047941;28;20286;-63
2023/05/14 01:39:56;;;;;;;3.47;2.93;;;;;;;;;;5049269;28;20204;-62
2023/05/14 01:42:28;;;;;;;3.20;3.00;;;;;;;;;;5051642;28;20215;-62
2023/05/14 01:44:58;;;;;;;5.40;2.90;;;;;;;;;;5049843;28;20214;-62
2023/05/14 01:47:25;;;;;;;3.03;2.83;;;;;;;;;;5049561;28;20215;-62
2023/05/14 01:49:52;;;;;;;3.23;2.97;;;;;;;;;;5049263;28;20199;-62
2023/05/14 01:52:20;;;;;;;3.90;2.90;;;;;;;;;;5049945;28;20218;-63
2023/05/14 01:54:47;;;;;;;3.37;2.80;;;;;;;;;;5050098;28;20212;-62
2023/05/14 01:57:16;;;;;;;2.80;2.60;;;;;;;;;;5049065;28;20203;-62
2023/05/14 01:59:43;;;;;;;2.83;2.63;;;;;;;;;;5051901;28;20207;-62
2023/05/14 02:02:10;;;;;;;2.93;2.73;;;;;;;;;;5049825;28;20219;-62
2023/05/14 02:04:37;;;;;;;3.60;3.10;;;;;;;;;;5045209;28;20202;-62
2023/05/14 02:07:04;;;;;;;3.20;2.90;;;;;;;;;;5049726;28;20207;-62
2023/05/14 02:09:31;;;;;;;3.27;3.00;;;;;;;;;;5050529;28;20235;-62
2023/05/14 02:11:58;;;;;;;4.50;3.10;;;;;;;;;;5050169;28;20204;-62
2023/05/14 02:14:27;;;;;;;5.37;3.00;;;;;;;;;;5046723;28;20203;-62
2023/05/14 02:16:55;;;;;;;3.67;3.37;;;;;;;;;;5048232;28;20234;-62
2023/05/14 02:19:22;;;;;;;3.60;3.30;;;;;;;;;;5049942;28;20249;-62
2023/05/14 02:21:49;;;;;;;4.10;3.80;;;;;;;;;;5046421;28;20214;-62
2023/05/14 02:24:16;;;;;;;4.70;2.93;;;;;;;;;;5049448;28;20203;-62
2023/05/14 02:26:45;;;;;;;3.00;2.80;;;;;;;;;;5047900;28;20210;-62
2023/05/14 02:29:12;;;;;;;3.43;3.00;;;;;;;;;;5047586;28;20244;-62
2023/05/14 02:31:41;;;;;;;3.30;3.00;;;;;;;;;;5043634;28;20204;-62
2023/05/14 02:34:08;;;;;;;3.80;3.40;;;;;;;;;;5046129;28;20218;-62
2023/05/14 02:36:37;;;;;;;3.63;2.80;;;;;;;;;;5050383;28;20206;-62
2023/05/14 02:39:05;;;;;;;3.60;3.30;;;;;;;;;;5050566;28;20219;-62
2023/05/14 02:41:34;;;;;;;3.20;3.00;;;;;;;;;;5048504;28;20203;-62
2023/05/14 02:44:02;;;;;;;3.27;2.97;;;;;;;;;;5050052;28;20222;-62
2023/05/14 02:46:29;;;;;;;3.40;3.20;;;;;;;;;;5048240;28;20203;-62
2023/05/14 02:48:57;;;;;;;3.57;3.27;;;;;;;;;;5050296;28;20247;-62
2023/05/14 02:51:25;;;;;;;3.80;3.30;;;;;;;;;;5047857;28;20214;-62
2023/05/14 02:53:59;;;;;;;4.93;3.57;;;;;;;;;;5050408;28;20249;-62
2023/05/14 02:56:29;;;;;;;3.53;3.13;;;;;;;;;;5047076;28;20204;-62
2023/05/14 02:58:56;;;;;;;4.90;3.00;;;;;;;;;;5050861;28;20200;-62
2023/05/14 03:01:26;;;;;;;3.73;3.37;;;;;;;;;;5046948;28;20200;-62
2023/05/14 03:03:53;;;;;;;3.20;3.00;;;;;;;;;;5047831;28;20250;-62
2023/05/14 03:06:21;;;;;;;3.90;3.23;;;;;;;;;;5045052;28;20207;-62
2023/05/14 03:08:48;;;;;;;3.50;3.20;;;;;;;;;;5048404;28;20223;-62
2023/05/14 03:11:18;;;;;;;3.80;3.50;;;;;;;;;;5047855;28;20196;-62
2023/05/14 03:13:45;;;;;;;3.27;3.00;;;;;;;;;;5048651;28;20211;-62
2023/05/14 03:16:13;;;;;;;3.30;3.07;;;;;;;;;;5047517;28;20281;-62
2023/05/14 03:18:50;;;;;;;3.47;3.27;;;;;;;;;;5046271;28;20199;-62
2023/05/14 03:21:19;;;;;;;3.63;3.30;;;;;;;;;;5049413;28;20237;-62
2023/05/14 03:23:48;;;;;;;3.67;3.37;;;;;;;;;;5046884;28;20382;-62
2023/05/14 03:26:17;;;;;;;4.10;2.90;;;;;;;;;;5047716;28;20207;-62
2023/05/14 03:28:49;;;;;;;3.57;3.20;;;;;;;;;;5048435;28;20235;-62
2023/05/14 03:31:19;;;;;;;5.17;3.10;;;;;;;;;;5045886;28;20231;-63
2023/05/14 03:33:48;;;;;;;3.30;3.03;;;;;;;;;;5049709;28;20227;-62
2023/05/14 03:36:20;;;;;;;3.07;2.77;;;;;;;;;;5049540;28;20208;-62
2023/05/14 03:38:49;;;;;;;3.30;3.10;;;;;;;;;;5050406;28;20214;-62
2023/05/14 03:41:17;;;;;;;3.63;2.90;;;;;;;;;;5049075;28;20203;-63
2023/05/14 03:43:46;;;;;;;3.10;2.80;;;;;;;;;;5048218;28;20306;-62
2023/05/14 03:46:13;;;;;;;3.50;3.03;;;;;;;;;;5048220;28;20238;-62
2023/05/14 03:48:45;;;;;;;3.27;2.97;;;;;;;;;;5048704;28;20203;-63
2023/05/14 03:51:12;;;;;;;6.90;3.30;;;;;;;;;;5049053;28;20211;-62
2023/05/14 03:53:40;;;;;;;3.07;2.87;;;;;;;;;;5046477;28;20212;-62
2023/05/14 03:56:08;;;;;;;3.27;3.00;;;;;;;;;;5048957;28;20203;-62
2023/05/14 03:58:38;;;;;;;3.67;2.87;;;;;;;;;;5049026;28;20207;-62
2023/05/14 04:01:05;;;;;;;5.20;2.97;;;;;;;;;;5047110;28;20211;-62
2023/05/14 04:03:39;;;;;;;3.13;2.87;;;;;;;;;;5046052;28;20207;-63
2023/05/14 04:06:09;;;;;;;3.50;3.20;;;;;;;;;;5047741;28;20194;-62
2023/05/14 04:08:38;;;;;;;3.87;3.67;;;;;;;;;;5047892;28;20218;-63
2023/05/14 04:11:05;;;;;;;4.50;3.50;;;;;;;;;;5041197;28;20235;-62
2023/05/14 04:13:34;;;;;;;3.40;3.10;;;;;;;;;;5046295;28;20204;-62
2023/05/14 04:16:06;;;;;;;4.33;3.00;;;;;;;;;;5047520;28;20247;-63
2023/05/14 04:18:34;;;;;;;3.13;2.93;;;;;;;;;;5047209;28;20286;-62
2023/05/14 04:21:04;;;;;;;3.63;2.93;;;;;;;;;;5048768;28;20314;-62
2023/05/14 04:23:31;;;;;;;6.03;3.43;;;;;;;;;;5047163;28;20218;-62
2023/05/14 04:26:01;;;;;;;4.00;3.70;;;;;;;;;;5049717;28;20261;-62
2023/05/14 04:28:28;;;;;;;3.90;3.50;;;;;;;;;;5047726;28;20214;-62
2023/05/14 04:30:59;;;;;;;4.10;3.70;;;;;;;;;;5048724;28;20239;-62
2023/05/14 04:33:31;;;;;;;3.83;3.40;;;;;;;;;;5044537;28;20283;-63
2023/05/14 04:35:58;;;;;;;4.40;3.10;;;;;;;;;;5045551;28;20204;-74
2023/05/14 04:38:25;;;;;;;3.60;3.30;;;;;;;;;;5041752;28;20206;-72
2023/05/14 04:40:52;;;;;;;3.47;3.17;;;;;;;;;;5053906;28;20200;-72
2023/05/14 04:43:24;;;;;;;8.47;3.30;;;;;;;;;;5044554;28;20207;-72
2023/05/14 04:45:52;;;;;;;5.23;3.20;;;;;;;;;;5052022;28;20203;-72
2023/05/14 04:48:22;;;;;;;5.97;2.90;;;;;;;;;;5050423;28;20275;-72
2023/05/14 04:50:50;;;;;;;2.97;2.20;;;;;;;;;;5055391;28;20223;-72
2023/05/14 04:53:18;;;;;;;2.67;2.43;;;;;;;;;;5053611;28;20203;-72
2023/05/14 04:55:45;;;;;;;2.47;2.37;;;;;;;;;;5053608;28;20204;-72
2023/05/14 04:58:12;;;;;;;4.67;2.70;;;;;;;;;;5048028;28;20200;-72
2023/05/14 05:00:39;;;;;;;19.43;3.00;;;;;;;;;;5055013;28;20196;-72
2023/05/14 05:03:09;;;;;;;2.27;2.17;;;;;;;;;;5050758;28;20204;-72
2023/05/14 05:05:40;;;;;;;2.13;2.03;;;;;;;;;;5051280;28;20325;-72
2023/05/14 05:08:07;;;;;;;1.83;1.73;;;;;;;;;;5051227;28;20211;-72
2023/05/14 05:10:34;;;;;;;2.00;1.90;;;;;;;;;;5050528;28;20228;-72
2023/05/14 05:13:01;;;;;;;1.97;1.77;;;;;;;;;;5049775;28;20206;-72
2023/05/14 05:15:28;;;;;;;2.00;1.90;;;;;;;;;;5049442;28;20245;-71
2023/05/14 05:17:55;;;;;;;1.90;1.80;;;;;;;;;;5051882;28;20210;-72
2023/05/14 05:20:23;;;;;;;2.10;2.00;;;;;;;;;;5050357;28;20191;-71
2023/05/14 05:22:54;;;;;;;2.87;1.90;;;;;;;;;;5049796;28;20203;-71
2023/05/14 05:25:21;;;;;;;1.97;1.80;;;;;;;;;;5050432;28;20211;-71
2023/05/14 05:27:51;;;;;;;2.20;2.10;;;;;;;;;;5049981;28;20203;-71
2023/05/14 05:30:18;;;;;;;2.50;2.40;;;;;;;;;;5050185;28;20235;-71
2023/05/14 05:32:48;;;;;;;2.47;2.00;;;;;;;;;;5050505;28;20222;-70
2023/05/14 05:35:15;;;;;;;3.10;1.73;;;;;;;;;;5052169;28;20219;-71
2023/05/14 05:37:44;;;;;;;2.23;2.10;;;;;;;;;;5050248;28;20204;-70
2023/05/14 05:40:15;;;;;;;2.00;1.90;;;;;;;;;;5050611;28;20295;-70
2023/05/14 05:42:42;;;;;;;2.17;2.03;;;;;;;;;;5052183;28;20215;-70
2023/05/14 05:45:09;;;;;;;1.77;1.67;;;;;;;;;;5051574;28;20227;-70
2023/05/14 05:47:36;;;;;;;2.13;1.70;;;;;;;;;;5045383;28;20208;-70
2023/05/14 05:50:06;;;;;;;2.40;2.20;;;;;;;;;;5045560;28;20214;-70
2023/05/14 05:52:33;;;;;;;2.00;1.60;;;;;;;;;;5046976;28;20214;-70
2023/05/14 05:55:03;;;;;;;1.80;1.70;;;;;;;;;;5050852;28;20203;-70
2023/05/14 05:57:31;;;;;;;1.77;1.67;;;;;;;;;;5045571;28;20207;-70
2023/05/14 06:00:08;;;;;;;1.90;1.80;;;;;;;;;;5048290;28;20206;-69
2023/05/14 06:02:38;;;;;;;1.93;1.83;;;;;;;;;;5044984;28;20278;-69
2023/05/14 06:05:08;;;;;;;1.80;1.70;;;;;;;;;;5046204;28;20223;-69
2023/05/14 06:07:35;;;;;;;2.07;1.97;;;;;;;;;;5053719;28;20222;-70
2023/05/14 06:10:02;;;;;;;3.10;2.17;;;;;;;;;;5052143;28;20213;-69
2023/05/14 06:12:32;;;;;;;2.77;2.57;;;;;;;;;;5044837;28;20216;-68
2023/05/14 06:15:00;;;;;;;2.43;2.20;;;;;;;;;;5044694;28;20231;-69
2023/05/14 06:17:27;;;;;;;2.13;1.93;;;;;;;;;;5051170;28;20199;-68
2023/05/14 06:19:57;;;;;;;2.00;1.90;;;;;;;;;;5049244;28;20231;-68
2023/05/14 06:22:25;;;;;;;1.87;1.77;;;;;;;;;;5050121;28;20234;-69
2023/05/14 06:24:52;;;;;;;1.57;1.50;;;;;;;;;;5048834;28;20237;-69
2023/05/14 06:27:19;;;;;;;1.70;1.60;;;;;;;;;;5047839;28;20222;-69
2023/05/14 06:29:46;;;;;;;1.73;1.63;;;;;;;;;;5052048;28;20214;-68
2023/05/14 06:32:15;;;;;;;2.50;1.47;;;;;;;;;;5050023;28;20219;-68
2023/05/14 06:34:42;;;;;;;1.77;1.67;;;;;;;;;;5045045;28;20196;-69
2023/05/14 06:37:09;;;;;;;2.50;2.30;;;;;;;;;;5052957;28;20203;-68
2023/05/14 06:39:36;;;;;;;12.60;2.50;;;;;;;;;;5050551;28;20206;-68
2023/05/14 06:42:03;;;;;;;2.90;1.90;;;;;;;;;;5051551;28;20222;-68
2023/05/14 06:44:31;;;;;;;1.77;1.67;;;;;;;;;;5049117;28;20195;-67
2023/05/14 06:46:58;;;;;;;2.33;2.23;;;;;;;;;;5045907;28;20218;-68
2023/05/14 06:49:26;;;;;;;2.33;2.23;;;;;;;;;;5042489;28;20210;-68
2023/05/14 06:51:56;;;;;;;1.90;1.80;;;;;;;;;;5047330;28;20219;-68
2023/05/14 06:54:32;;;;;;;2.42;2.30;;;;;;;;;;5048708;28;20218;-67
2023/05/14 06:57:02;;;;;;;3.10;2.90;;;;;;;;;;5047251;28;20214;-68
2023/05/14 06:59:29;;;;;;;3.40;3.20;;;;;;;;;;5047505;28;20286;-68
2023/05/14 07:01:56;;;;;;;3.60;3.30;;;;;;;;;;5046875;28;20195;-67
2023/05/14 07:04:23;;;;;;;3.70;3.40;;;;;;;;;;5049974;28;20207;-67
2023/05/14 07:06:52;;;;;;;4.20;3.90;;;;;;;;;;5046767;28;20211;-68
2023/05/14 07:09:23;;;;;;;4.60;3.88;;;;;;;;;;5046825;28;20306;-67
2023/05/14 07:11:50;;;;;;;4.07;3.78;;;;;;;;;;5047935;28;20223;-67
2023/05/14 07:14:18;;;;;;;5.05;4.55;;;;;;;;;;5050570;28;20204;-67
2023/05/14 07:16:47;;;;;;;5.15;4.75;;;;;;;;;;5047201;28;20239;-67
2023/05/14 07:19:14;;;;;;;4.50;4.10;;;;;;;;;;5045747;28;20219;-67
2023/05/14 07:21:46;;;;;;;5.00;4.60;;;;;;;;;;5049537;28;20195;-67
2023/05/14 07:24:15;;;;;;;4.70;4.30;;;;;;;;;;5045595;28;20207;-67
2023/05/14 07:26:42;;;;;;;4.05;3.65;;;;;;;;;;5046405;28;20195;-67
2023/05/14 07:29:09;;;;;;;4.32;4.00;;;;;;;;;;5048419;28;20199;-67
2023/05/14 07:31:36;;;;;;;4.93;4.63;;;;;;;;;;5046369;28;20227;-67
2023/05/14 07:34:03;;;;;;;4.85;4.35;;;;;;;;;;5045730;28;20195;-67
2023/05/14 07:36:30;;;;;;;5.65;5.15;;;;;;;;;;5046133;28;20227;-67
2023/05/14 07:38:58;;;;;;;6.82;4.65;;;;;;;;;;5047059;28;20286;-67
2023/05/14 07:41:26;;;;;;;5.05;4.72;;;;;;;;;;5047663;28;20208;-66
2023/05/14 07:43:53;;;;;;;5.25;4.60;;;;;;;;;;5047038;28;20211;-66
2023/05/14 07:46:20;;;;;;;4.57;4.22;;;;;;;;;;5047676;28;20199;-66
2023/05/14 07:48:47;;;;;;;4.55;4.25;;;;;;;;;;5047691;28;20212;-66
2023/05/14 07:51:14;;;;;;;4.57;4.25;;;;;;;;;;5048084;28;20207;-66
2023/05/14 07:53:41;;;;;;;3.75;3.45;;;;;;;;;;5047372;28;20231;-66
2023/05/14 07:56:09;;;;;;;5.53;4.25;;;;;;;;;;5047477;28;20200;-66
2023/05/14 07:58:37;;;;;;;3.72;3.50;;;;;;;;;;5043267;28;20269;-66
2023/05/14 08:01:07;;;;;;;3.28;3.08;;;;;;;;;;5044469;28;20214;-67
2023/05/14 08:03:34;;;;;;;3.05;2.85;;;;;;;;;;5046346;28;20310;-66
2023/05/14 08:06:02;;;;;;;3.70;3.50;;;;;;;;;;5047940;28;20204;-66
2023/05/14 08:08:29;;;;;;;5.40;3.60;;;;;;;;;;5046373;28;20215;-66
2023/05/14 08:10:57;;;;;;;3.72;3.45;;;;;;;;;;5047447;28;20235;-67
2023/05/14 08:13:24;;;;;;;4.57;3.08;;;;;;;;;;5048309;28;20225;-66
2023/05/14 08:15:52;;;;;;;3.55;3.25;;;;;;;;;;5044591;28;20239;-66
2023/05/14 08:18:19;;;;;;;3.40;3.20;;;;;;;;;;5044951;28;20218;-67
2023/05/14 08:20:47;;;;;;;4.88;2.97;;;;;;;;;;5047305;28;20203;-67
2023/05/14 08:23:14;;;;;;;3.38;3.17;;;;;;;;;;5047767;28;20202;-66
2023/05/14 08:25:41;;;;;;;3.40;3.10;;;;;;;;;;5048599;28;20210;-67
2023/05/14 08:28:08;;;;;;;3.22;2.83;;;;;;;;;;5049064;28;20200;-66
2023/05/14 08:30:35;;;;;;;3.78;3.40;;;;;;;;;;5051707;28;20203;-66
2023/05/14 08:33:04;;;;;;;5.18;2.95;;;;;;;;;;5049286;28;20230;-66
2023/05/14 08:35:31;;;;;;;5.43;3.25;;;;;;;;;;5052359;28;20207;-66
2023/05/14 08:37:58;;;;;;;2.97;2.78;;;;;;;;;;5049297;28;20211;-67
2023/05/14 08:40:25;;;;;;;3.47;3.20;;;;;;;;;;5048411;28;20234;-66
2023/05/14 08:42:52;;;;;;;3.35;3.15;;;;;;;;;;5050810;28;20207;-66
2023/05/14 08:45:20;;;;;;;3.38;2.90;;;;;;;;;;5045398;28;20203;-66
2023/05/14 08:47:49;;;;;;;3.25;2.90;;;;;;;;;;5050207;28;20207;-66
2023/05/14 08:50:18;;;;;;;3.35;3.10;;;;;;;;;;5047243;28;20203;-67
2023/05/14 08:52:46;;;;;;;2.97;2.78;;;;;;;;;;5046044;28;20227;-67
2023/05/14 08:55:13;;;;;;;3.17;2.97;;;;;;;;;;5052121;28;20230;-66
2023/05/14 08:57:40;;;;;;;3.20;2.90;;;;;;;;;;5050098;28;20207;-67
2023/05/14 09:00:10;;;;;;;4.00;3.15;;;;;;;;;;5047041;28;20214;-67
2023/05/14 09:02:37;;;;;;;3.65;3.10;;;;;;;;;;5043524;28;20207;-67
2023/05/14 09:05:06;;;;;;;3.10;2.90;;;;;;;;;;5047569;28;20196;-67
2023/05/14 09:07:34;;;;;;;3.58;2.60;;;;;;;;;;5048518;28;20199;-67
2023/05/14 09:10:02;;;;;;;7.75;2.88;;;;;;;;;;5052765;28;20207;-67
2023/05/14 09:12:30;;;;;;;3.53;2.83;;;;;;;;;;5048530;28;20223;-67
2023/05/14 09:14:57;;;;;;;2.88;2.65;;;;;;;;;;5046585;28;20298;-67
2023/05/14 09:17:26;;;;;;;3.13;2.83;;;;;;;;;;5051809;28;20235;-67
2023/05/14 09:19:53;;;;;;;3.88;2.83;;;;;;;;;;5053333;28;20199;-68
2023/05/14 09:22:21;;;;;;;3.35;3.10;;;;;;;;;;5048874;28;20226;-67
2023/05/14 09:25:02;;;;;;;3.08;2.88;;;;;;;;;;5049290;28;20200;-67
2023/05/14 09:27:30;;;;;;;3.05;2.85;;;;;;;;;;5049018;28;20203;-69
2023/05/14 09:30:04;;;;;;;3.03;2.83;;;;;;;;;;5048287;28;20221;-68
2023/05/14 09:32:35;;;;;;;5.28;3.10;;;;;;;;;;5047248;28;20229;-68
2023/05/14 09:35:10;;;;;;;2.63;2.47;;;;;;;;;;5046393;28;20222;-68
2023/05/14 09:37:37;;;;;;;2.65;2.50;;;;;;;;;;5043160;28;20209;-68
2023/05/14 09:40:08;;;;;;;2.60;2.50;;;;;;;;;;5040908;28;20204;-68
2023/05/14 09:42:36;;;;;;;2.67;2.47;;;;;;;;;;5045638;28;20208;-69
2023/05/14 09:45:04;;;;;;;2.63;2.40;;;;;;;;;;5043179;28;20203;-67
2023/05/14 09:47:31;;;;;;;2.97;2.30;;;;;;;;;;5040121;28;20255;-67
2023/05/14 09:49:58;;;;;;;3.33;2.30;;;;;;;;;;5046332;28;20238;-67
2023/05/14 09:52:25;;;;;;;2.20;2.10;;;;;;;;;;5041933;28;20272;-70
2023/05/14 09:54:53;;;;;;;2.45;2.20;;;;;;;;;;5044792;28;20200;-69
2023/05/14 09:57:21;;;;;;;3.20;2.40;;;;;;;;;;5048172;28;20200;-68
2023/05/14 09:59:48;;;;;;;2.03;1.92;;;;;;;;;;5048167;28;20206;-69
2023/05/14 10:02:17;;;;;;;2.35;1.90;;;;;;;;;;5049033;28;20218;-69
2023/05/14 10:04:44;;;;;;;2.00;1.90;;;;;;;;;;5042883;28;20199;-69
2023/05/14 10:07:12;;;;;;;2.00;1.90;;;;;;;;;;5045069;28;20279;-69
2023/05/14 10:09:40;;;;;;;5.03;2.50;;;;;;;;;;5043393;28;20208;-69
2023/05/14 10:12:08;;;;;;;2.20;2.10;;;;;;;;;;5044250;28;20203;-69
2023/05/14 10:14:40;;;;;;;3.53;2.10;;;;;;;;;;5048961;28;20204;-69
2023/05/14 10:17:16;;;;;;;2.20;2.00;;;;;;;;;;5045552;28;20239;-69
2023/05/14 10:19:46;;;;;;;2.58;2.13;;;;;;;;;;5037428;28;20226;-70
2023/05/14 10:22:16;;;;;;;2.80;1.95;;;;;;;;;;5045469;28;20259;-69
2023/05/14 10:24:44;;;;;;;2.03;1.92;;;;;;;;;;5043533;28;20203;-69
2023/05/14 10:27:12;;;;;;;2.65;2.20;;;;;;;;;;5039922;28;20281;-69
2023/05/14 10:29:40;;;;;;;4.25;2.40;;;;;;;;;;5046909;28;20203;-68
2023/05/14 10:32:08;;;;;;;2.90;1.98;;;;;;;;;;5045738;28;20224;-68
2023/05/14 10:34:41;;;;;;;2.42;1.88;;;;;;;;;;5040909;28;20227;-69
2023/05/14 10:37:08;;;;;;;3.25;2.05;;;;;;;;;;5045313;28;20199;-69
2023/05/14 10:39:42;;;;;;;2.08;1.98;;;;;;;;;;5048372;28;20204;-68
2023/05/14 10:42:11;;;;;;;2.30;2.00;;;;;;;;;;5044527;28;20210;-68
2023/05/14 10:44:41;;;;;;;7.07;2.40;;;;;;;;;;5044626;28;20200;-67
2023/05/14 10:47:10;;;;;;;2.47;2.28;;;;;;;;;;5044248;28;20212;-67
2023/05/14 10:49:37;;;;;;;2.50;2.30;;;;;;;;;;5046389;28;20206;-68
2023/05/14 10:52:04;;;;;;;2.63;1.92;;;;;;;;;;5047369;28;20204;-67
2023/05/14 10:54:35;;;;;;;2.72;1.95;;;;;;;;;;5048685;28;20224;-69
2023/05/14 10:57:02;;;;;;;3.60;2.50;;;;;;;;;;5048206;28;20207;-69
2023/05/14 10:59:29;;;;;;;2.30;2.10;;;;;;;;;;5047126;28;20241;-68
2023/05/14 11:01:57;;;;;;;2.15;1.95;;;;;;;;;;5049477;28;20302;-68
2023/05/14 11:04:28;;;;;;;2.30;2.10;;;;;;;;;;5046778;28;20199;-67
2023/05/14 11:06:55;;;;;;;2.40;2.20;;;;;;;;;;5040712;28;20203;-68
2023/05/14 11:09:24;;;;;;;2.40;2.20;;;;;;;;;;5049285;28;20211;-68
2023/05/14 11:11:51;;;;;;;2.65;2.40;;;;;;;;;;5041190;28;20208;-68
2023/05/14 11:14:18;;;;;;;2.17;2.08;;;;;;;;;;5049556;28;20313;-68
2023/05/14 11:16:46;;;;;;;3.88;2.20;;;;;;;;;;5041557;28;20238;-67
2023/05/14 11:19:13;;;;;;;2.30;2.03;;;;;;;;;;5050985;28;20196;-70
2023/05/14 11:21:41;;;;;;;4.63;2.00;;;;;;;;;;5046975;28;20204;-68
2023/05/14 11:24:09;;;;;;;2.85;1.90;;;;;;;;;;5045369;28;20206;-67
2023/05/14 11:26:36;;;;;;;3.03;2.40;;;;;;;;;;5048669;28;20203;-67
2023/05/14 11:29:03;;;;;;;4.97;2.20;;;;;;;;;;5051091;28;20254;-69
2023/05/14 11:31:30;;;;;;;2.30;2.10;;;;;;;;;;5047494;28;20286;-69
2023/05/14 11:33:57;;;;;;;2.10;1.90;;;;;;;;;;5045568;28;20306;-69
2023/05/14 11:36:24;;;;;;;2.55;2.03;;;;;;;;;;5048694;28;20206;-69
2023/05/14 11:38:53;;;;;;;2.20;2.00;;;;;;;;;;5049583;28;20294;-69
2023/05/14 11:41:21;;;;;;;2.08;1.90;;;;;;;;;;5047228;28;20202;-69
2023/05/14 11:43:48;;;;;;;2.17;2.00;;;;;;;;;;5043491;28;20195;-69
2023/05/14 11:46:18;;;;;;;2.22;1.90;;;;;;;;;;5042040;28;20231;-69
2023/05/14 11:48:45;;;;;;;3.45;1.98;;;;;;;;;;5042684;28;20214;-69
2023/05/14 11:51:13;;;;;;;2.55;2.20;;;;;;;;;;5042737;28;20214;-69
2023/05/14 11:53:40;;;;;;;3.63;2.00;;;;;;;;;;5050267;28;20226;-69
2023/05/14 11:56:08;;;;;;;3.75;2.00;;;;;;;;;;5044139;28;20237;-69
2023/05/14 11:58:35;;;;;;;5.00;2.30;;;;;;;;;;5046942;28;20200;-69
2023/05/14 12:01:03;;;;;;;2.10;2.00;;;;;;;;;;5042578;28;20208;-69
2023/05/14 12:03:30;;;;;;;2.25;2.00;;;;;;;;;;5041372;28;20203;-69
2023/05/14 12:05:58;;;;;;;2.17;2.08;;;;;;;;;;5037969;28;20214;-69
2023/05/14 12:08:27;;;;;;;2.25;1.98;;;;;;;;;;5044289;28;20211;-69
2023/05/14 12:10:54;;;;;;;1.83;1.73;;;;;;;;;;5046172;28;20203;-69
2023/05/14 12:13:22;;;;;;;2.72;2.33;;;;;;;;;;5044999;28;20238;-69
2023/05/14 12:15:55;;;;;;;2.35;2.00;;;;;;;;;;5041765;28;20232;-67
2023/05/14 12:18:22;;;;;;;2.47;2.20;;;;;;;;;;5036990;28;20240;-66
2023/05/14 12:20:50;;;;;;;2.30;2.20;;;;;;;;;;5046869;28;20199;-66
2023/05/14 12:23:17;;;;;;;2.47;2.30;;;;;;;;;;5045629;28;20206;-67
2023/05/14 12:25:51;;;;;;;2.60;2.40;;;;;;;;;;5041549;28;20200;-67
2023/05/14 12:28:18;;;;;;;2.35;2.13;;;;;;;;;;5046026;28;20208;-66
2023/05/14 12:30:47;;;;;;;2.55;2.35;;;;;;;;;;5038417;28;20212;-66
2023/05/14 12:33:15;;;;;;;2.67;2.47;;;;;;;;;;5044451;28;20227;-67
2023/05/14 12:35:42;;;;;;;2.47;2.30;;;;;;;;;;5046636;28;20230;-66
2023/05/14 12:38:09;;;;;;;2.40;2.20;;;;;;;;;;5046633;28;20200;-67
2023/05/14 12:40:36;;;;;;;2.60;2.40;;;;;;;;;;5046957;28;20208;-66
2023/05/14 12:43:03;;;;;;;3.60;2.33;;;;;;;;;;5049035;28;20290;-67
2023/05/14 12:45:30;;;;;;;2.30;2.20;;;;;;;;;;5046264;28;20207;-67
2023/05/14 12:47:59;;;;;;;2.78;2.22;;;;;;;;;;5046232;28;20204;-67
2023/05/14 12:50:26;;;;;;;2.67;2.20;;;;;;;;;;5041838;28;20206;-67
2023/05/14 12:52:53;;;;;;;2.65;2.38;;;;;;;;;;5046409;28;20207;-66
2023/05/14 12:55:20;;;;;;;2.35;2.25;;;;;;;;;;5042922;28;20219;-66
2023/05/14 12:57:47;;;;;;;2.75;2.20;;;;;;;;;;5046791;28;20211;-66
2023/05/14 13:00:15;;;;;;;2.40;2.20;;;;;;;;;;5044974;28;20254;-66
2023/05/14 13:02:42;;;;;;;2.33;2.03;;;;;;;;;;5041627;28;20223;-67
2023/05/14 13:05:11;;;;;;;4.75;2.20;;;;;;;;;;5049146;28;20200;-66
2023/05/14 13:07:38;;;;;;;2.40;2.22;;;;;;;;;;5048761;28;20203;-66
2023/05/14 13:10:06;;;;;;;2.10;1.85;;;;;;;;;;5052373;28;20196;-66
2023/05/14 13:12:33;;;;;;;2.13;2.03;;;;;;;;;;5052143;28;20200;-67
2023/05/14 13:15:00;;;;;;;2.20;2.00;;;;;;;;;;5051365;28;20218;-67
2023/05/14 13:17:27;;;;;;;2.35;2.03;;;;;;;;;;5049340;28;20227;-67
2023/05/14 13:19:54;;;;;;;2.20;2.00;;;;;;;;;;5049705;28;20210;-67
2023/05/14 13:22:23;;;;;;;2.78;1.90;;;;;;;;;;5051817;28;20196;-66
2023/05/14 13:24:50;;;;;;;3.15;2.10;;;;;;;;;;5051819;28;20196;-67
2023/05/14 13:27:17;;;;;;;2.38;2.10;;;;;;;;;;5044532;28;20232;-67
2023/05/14 13:29:44;;;;;;;2.45;1.85;;;;;;;;;;5048861;28;20211;-68
2023/05/14 13:32:11;;;;;;;2.63;1.85;;;;;;;;;;5046015;28;20208;-67
2023/05/14 13:34:42;;;;;;;2.45;1.83;;;;;;;;;;5037567;28;20227;-67
2023/05/14 13:37:09;;;;;;;2.45;1.90;;;;;;;;;;5043527;28;20286;-67
2023/05/14 13:39:38;;;;;;;1.60;1.50;;;;;;;;;;5051467;28;20204;-66
2023/05/14 13:42:05;;;;;;;1.85;1.75;;;;;;;;;;5046450;28;20200;-66
2023/05/14 13:44:32;;;;;;;2.10;2.00;;;;;;;;;;5051459;28;20200;-66
2023/05/14 13:46:59;;;;;;;2.30;1.75;;;;;;;;;;5041755;28;20208;-66
2023/05/14 13:49:26;;;;;;;1.77;1.67;;;;;;;;;;5046345;28;20207;-67
2023/05/14 13:51:54;;;;;;;1.70;1.60;;;;;;;;;;5048219;28;20210;-68
2023/05/14 13:54:21;;;;;;;3.78;1.67;;;;;;;;;;5042407;28;20228;-69
2023/05/14 13:56:49;;;;;;;2.25;1.70;;;;;;;;;;5046063;28;20225;-70
2023/05/14 13:59:17;;;;;;;1.63;1.52;;;;;;;;;;5046297;28;20223;-69
2023/05/14 14:01:44;;;;;;;2.10;1.85;;;;;;;;;;5048915;28;20242;-68
2023/05/14 14:04:11;;;;;;;3.25;1.67;;;;;;;;;;5051523;28;20196;-70
2023/05/14 14:06:38;;;;;;;1.67;1.58;;;;;;;;;;5047839;28;20214;-68
2023/05/14 14:09:05;;;;;;;1.92;1.83;;;;;;;;;;5046415;28;20207;-68
2023/05/14 14:11:32;;;;;;;1.77;1.67;;;;;;;;;;5050167;28;20204;-68
2023/05/14 14:14:01;;;;;;;1.70;1.52;;;;;;;;;;5048009;28;20246;-68
2023/05/14 14:16:28;;;;;;;1.73;1.63;;;;;;;;;;5047925;28;20239;-68
2023/05/14 14:18:56;;;;;;;2.03;1.65;;;;;;;;;;5048673;28;20215;-70
2023/05/14 14:21:23;;;;;;;1.60;1.50;;;;;;;;;;5050226;28;20289;-69
2023/05/14 14:23:50;;;;;;;1.60;1.50;;;;;;;;;;5049110;28;20211;-70
2023/05/14 14:26:17;;;;;;;1.98;1.60;;;;;;;;;;5048421;28;20215;-69
2023/05/14 14:28:44;;;;;;;1.70;1.60;;;;;;;;;;5047522;28;20200;-70
2023/05/14 14:31:13;;;;;;;1.73;1.63;;;;;;;;;;5048371;28;20206;-68
2023/05/14 14:33:40;;;;;;;1.67;1.58;;;;;;;;;;5046996;28;20199;-68
2023/05/14 14:36:08;;;;;;;2.53;1.80;;;;;;;;;;5047507;28;20214;-68
2023/05/14 14:38:35;;;;;;;4.03;2.30;;;;;;;;;;5044164;28;20191;-68
2023/05/14 14:41:02;;;;;;;3.70;1.90;;;;;;;;;;5045083;28;20250;-68
2023/05/14 14:43:30;;;;;;;1.70;1.60;;;;;;;;;;5046077;28;20226;-67
2023/05/14 14:45:57;;;;;;;1.77;1.67;;;;;;;;;;5048469;28;20211;-67
2023/05/14 14:48:27;;;;;;;1.80;1.70;;;;;;;;;;5044341;28;20205;-67